KBRL/BRL METAR and TAF weather

Enter ICAO airport designator
Station Type Date Time Source
KBRL METAR 2020/07/05 16:53 UTC NOAA

KBRL 051653Z AUTO 08003KT 10SM CLR 31/18 A3002 RMK AO2 SLP158 T03110183


Station Type Date Time Source
KBRL Decoded METAR 2020/07/05 16:53 UTC NOAA

BURLINGTON REGIONAL AIRPORT, IA, United States (KBRL) 40-46N 91-08W 211M
Jul 05, 2020 - 12:53 PM EDT / 2020.07.05 1653 UTC
Wind: from the E (080 degrees) at 3 MPH (3 KT):0
Visibility: 10 mile(s):0
Sky conditions: clear
Temperature: 88.0 F (31.1 C)
Dew Point: 64.9 F (18.3 C)
Relative Humidity: 46%
Pressure (altimeter): 30.02 in. Hg (1016 hPa)
ob: KBRL 051653Z AUTO 08003KT 10SM CLR 31/18 A3002 RMK AO2 SLP158 T03110183
cycle: 17

Station Type Date Time Source
KBRL TAF 2020/07/05 12:33 UTC NOAA

TAF KBRL 051131Z 0512/0612 VRB03KT 4SM BR SKC
FM051400 VRB03KT P6SM FEW060
FM060900 00000KT 4SM BR FEW150

Example: see airport list